sensor_id;sensor_type;location;lat;lon;timestamp;temperature;humidity
44166;DHT22;30476;53.468;9.826;2022-07-10T00:02:16;15.90;97.80
44166;DHT22;30476;53.468;9.826;2022-07-10T00:04:42;15.90;97.90
44166;DHT22;30476;53.468;9.826;2022-07-10T00:07:08;15.90;98.10
44166;DHT22;30476;53.468;9.826;2022-07-10T00:09:33;15.90;98.30
44166;DHT22;30476;53.468;9.826;2022-07-10T00:11:59;15.90;98.30
44166;DHT22;30476;53.468;9.826;2022-07-10T00:14:25;15.90;98.40
44166;DHT22;30476;53.468;9.826;2022-07-10T00:16:51;15.90;98.50
44166;DHT22;30476;53.468;9.826;2022-07-10T00:19:16;15.90;98.50
44166;DHT22;30476;53.468;9.826;2022-07-10T00:21:42;15.90;98.60
44166;DHT22;30476;53.468;9.826;2022-07-10T00:24:08;15.90;98.70
44166;DHT22;30476;53.468;9.826;2022-07-10T00:26:36;15.90;98.70
44166;DHT22;30476;53.468;9.826;2022-07-10T00:29:01;15.80;98.70
44166;DHT22;30476;53.468;9.826;2022-07-10T00:31:27;15.80;98.60
44166;DHT22;30476;53.468;9.826;2022-07-10T00:33:53;15.80;98.70
44166;DHT22;30476;53.468;9.826;2022-07-10T00:36:19;15.80;98.60
44166;DHT22;30476;53.468;9.826;2022-07-10T00:38:45;15.80;98.80
44166;DHT22;30476;53.468;9.826;2022-07-10T00:41:11;15.80;98.70
44166;DHT22;30476;53.468;9.826;2022-07-10T00:43:57;15.80;98.70
44166;DHT22;30476;53.468;9.826;2022-07-10T00:46:24;15.70;98.60
44166;DHT22;30476;53.468;9.826;2022-07-10T00:48:50;15.70;98.60
44166;DHT22;30476;53.468;9.826;2022-07-10T00:51:18;15.70;98.50
44166;DHT22;30476;53.468;9.826;2022-07-10T00:53:45;15.70;98.80
44166;DHT22;30476;53.468;9.826;2022-07-10T00:56:13;15.70;98.80
44166;DHT22;30476;53.468;9.826;2022-07-10T00:58:41;15.70;98.80
44166;DHT22;30476;53.468;9.826;2022-07-10T01:01:07;15.70;99.00
44166;DHT22;30476;53.468;9.826;2022-07-10T01:03:33;15.70;98.80
44166;DHT22;30476;53.468;9.826;2022-07-10T01:05:58;15.60;98.70
44166;DHT22;30476;53.468;9.826;2022-07-10T01:08:25;15.60;99.00
44166;DHT22;30476;53.468;9.826;2022-07-10T01:10:51;15.60;99.10
44166;DHT22;30476;53.468;9.826;2022-07-10T01:13:17;15.70;99.20
44166;DHT22;30476;53.468;9.826;2022-07-10T01:15:43;15.70;99.20
44166;DHT22;30476;53.468;9.826;2022-07-10T01:18:09;15.60;99.10
44166;DHT22;30476;53.468;9.826;2022-07-10T01:20:35;15.70;99.10
44166;DHT22;30476;53.468;9.826;2022-07-10T01:23:01;15.60;99.10
44166;DHT22;30476;53.468;9.826;2022-07-10T01:25:28;15.60;99.20
44166;DHT22;30476;53.468;9.826;2022-07-10T01:27:53;15.60;99.20
44166;DHT22;30476;53.468;9.826;2022-07-10T01:30:19;15.60;99.10
44166;DHT22;30476;53.468;9.826;2022-07-10T01:32:46;15.60;99.20
44166;DHT22;30476;53.468;9.826;2022-07-10T01:35:13;15.60;99.20
44166;DHT22;30476;53.468;9.826;2022-07-10T01:37:39;15.60;99.20
44166;DHT22;30476;53.468;9.826;2022-07-10T01:40:07;15.60;99.20
44166;DHT22;30476;53.468;9.826;2022-07-10T01:42:33;15.60;99.30
44166;DHT22;30476;53.468;9.826;2022-07-10T01:44:59;15.60;99.20
44166;DHT22;30476;53.468;9.826;2022-07-10T01:47:24;15.60;99.10
44166;DHT22;30476;53.468;9.826;2022-07-10T01:49:52;15.60;98.90
44166;DHT22;30476;53.468;9.826;2022-07-10T01:52:21;15.60;98.90
44166;DHT22;30476;53.468;9.826;2022-07-10T01:54:47;15.60;99.00
44166;DHT22;30476;53.468;9.826;2022-07-10T01:57:13;15.60;99.00
44166;DHT22;30476;53.468;9.826;2022-07-10T01:59:39;15.50;98.90
44166;DHT22;30476;53.468;9.826;2022-07-10T02:02:06;15.60;99.00
44166;DHT22;30476;53.468;9.826;2022-07-10T02:04:32;15.50;99.10
44166;DHT22;30476;53.468;9.826;2022-07-10T02:07:11;15.50;99.10
44166;DHT22;30476;53.468;9.826;2022-07-10T02:09:38;15.50;99.10
44166;DHT22;30476;53.468;9.826;2022-07-10T02:12:08;15.50;99.00
44166;DHT22;30476;53.468;9.826;2022-07-10T02:14:34;15.50;99.00
44166;DHT22;30476;53.468;9.826;2022-07-10T02:17:00;15.50;99.10
44166;DHT22;30476;53.468;9.826;2022-07-10T02:19:26;15.50;99.10
44166;DHT22;30476;53.468;9.826;2022-07-10T02:21:52;15.50;99.10
44166;DHT22;30476;53.468;9.826;2022-07-10T02:24:18;15.50;99.10
44166;DHT22;30476;53.468;9.826;2022-07-10T02:26:44;15.50;99.10
44166;DHT22;30476;53.468;9.826;2022-07-10T02:29:10;15.50;99.00
44166;DHT22;30476;53.468;9.826;2022-07-10T02:31:36;15.50;98.80
44166;DHT22;30476;53.468;9.826;2022-07-10T02:34:10;15.50;98.90
44166;DHT22;30476;53.468;9.826;2022-07-10T02:36:37;15.50;98.90
44166;DHT22;30476;53.468;9.826;2022-07-10T02:39:08;15.50;99.00
44166;DHT22;30476;53.468;9.826;2022-07-10T02:41:34;15.50;99.00
44166;DHT22;30476;53.468;9.826;2022-07-10T02:44:02;15.50;99.00
44166;DHT22;30476;53.468;9.826;2022-07-10T02:46:27;15.50;99.00
44166;DHT22;30476;53.468;9.826;2022-07-10T02:48:53;15.50;98.80
44166;DHT22;30476;53.468;9.826;2022-07-10T02:51:19;15.40;98.80
44166;DHT22;30476;53.468;9.826;2022-07-10T02:53:45;15.40;98.80
44166;DHT22;30476;53.468;9.826;2022-07-10T02:56:11;15.50;98.80
44166;DHT22;30476;53.468;9.826;2022-07-10T02:58:37;15.50;98.80
44166;DHT22;30476;53.468;9.826;2022-07-10T03:01:03;15.40;98.90
44166;DHT22;30476;53.468;9.826;2022-07-10T03:03:29;15.40;98.60
44166;DHT22;30476;53.468;9.826;2022-07-10T03:05:55;15.40;98.60
44166;DHT22;30476;53.468;9.826;2022-07-10T03:08:21;15.40;98.60
44166;DHT22;30476;53.468;9.826;2022-07-10T03:10:47;15.40;98.60
44166;DHT22;30476;53.468;9.826;2022-07-10T03:13:12;15.40;98.60
44166;DHT22;30476;53.468;9.826;2022-07-10T03:15:38;15.40;98.60
44166;DHT22;30476;53.468;9.826;2022-07-10T03:18:04;15.40;98.60
44166;DHT22;30476;53.468;9.826;2022-07-10T03:20:30;15.40;98.50
44166;DHT22;30476;53.468;9.826;2022-07-10T03:22:56;15.30;98.40
44166;DHT22;30476;53.468;9.826;2022-07-10T03:25:21;15.30;98.40
44166;DHT22;30476;53.468;9.826;2022-07-10T03:27:47;15.30;98.50
44166;DHT22;30476;53.468;9.826;2022-07-10T03:30:13;15.30;98.50
44166;DHT22;30476;53.468;9.826;2022-07-10T03:32:39;15.30;98.80
44166;DHT22;30476;53.468;9.826;2022-07-10T03:35:05;15.20;98.50
44166;DHT22;30476;53.468;9.826;2022-07-10T03:37:31;15.20;98.40
44166;DHT22;30476;53.468;9.826;2022-07-10T03:39:57;15.20;98.40
44166;DHT22;30476;53.468;9.826;2022-07-10T03:42:22;15.20;98.50
44166;DHT22;30476;53.468;9.826;2022-07-10T03:44:48;15.20;98.40
44166;DHT22;30476;53.468;9.826;2022-07-10T03:47:14;15.20;98.50
44166;DHT22;30476;53.468;9.826;2022-07-10T03:49:40;15.20;98.50
44166;DHT22;30476;53.468;9.826;2022-07-10T03:52:07;15.10;98.40
44166;DHT22;30476;53.468;9.826;2022-07-10T03:54:33;15.10;98.50
44166;DHT22;30476;53.468;9.826;2022-07-10T03:56:59;15.10;98.50
44166;DHT22;30476;53.468;9.826;2022-07-10T03:59:48;15.10;98.60
44166;DHT22;30476;53.468;9.826;2022-07-10T04:02:14;15.10;98.60
44166;DHT22;30476;53.468;9.826;2022-07-10T04:04:39;15.10;98.70
44166;DHT22;30476;53.468;9.826;2022-07-10T04:07:05;15.10;98.80
44166;DHT22;30476;53.468;9.826;2022-07-10T04:09:31;15.10;98.70
44166;DHT22;30476;53.468;9.826;2022-07-10T04:11:57;15.10;98.70
44166;DHT22;30476;53.468;9.826;2022-07-10T04:14:23;15.10;98.70
44166;DHT22;30476;53.468;9.826;2022-07-10T04:16:48;15.10;98.70
44166;DHT22;30476;53.468;9.826;2022-07-10T04:19:14;15.10;98.70
44166;DHT22;30476;53.468;9.826;2022-07-10T04:21:41;15.10;98.70
44166;DHT22;30476;53.468;9.826;2022-07-10T04:24:06;15.10;98.80
44166;DHT22;30476;53.468;9.826;2022-07-10T04:26:32;15.10;98.80
44166;DHT22;30476;53.468;9.826;2022-07-10T04:28:58;15.10;98.80
44166;DHT22;30476;53.468;9.826;2022-07-10T04:31:24;15.20;98.90
44166;DHT22;30476;53.468;9.826;2022-07-10T04:33:50;15.20;99.00
44166;DHT22;30476;53.468;9.826;2022-07-10T04:36:16;15.20;99.00
44166;DHT22;30476;53.468;9.826;2022-07-10T04:38:41;15.30;99.10
44166;DHT22;30476;53.468;9.826;2022-07-10T04:41:07;15.20;99.10
44166;DHT22;30476;53.468;9.826;2022-07-10T04:43:33;15.30;99.50
44166;DHT22;30476;53.468;9.826;2022-07-10T04:45:59;15.30;99.20
44166;DHT22;30476;53.468;9.826;2022-07-10T04:48:25;15.40;99.20
44166;DHT22;30476;53.468;9.826;2022-07-10T04:50:51;15.40;99.10
44166;DHT22;30476;53.468;9.826;2022-07-10T04:53:16;15.40;99.00
44166;DHT22;30476;53.468;9.826;2022-07-10T04:55:42;15.40;99.00
44166;DHT22;30476;53.468;9.826;2022-07-10T04:58:08;15.50;98.90
44166;DHT22;30476;53.468;9.826;2022-07-10T05:00:33;15.50;98.90
44166;DHT22;30476;53.468;9.826;2022-07-10T05:02:59;15.50;98.90
44166;DHT22;30476;53.468;9.826;2022-07-10T05:05:25;15.60;98.90
44166;DHT22;30476;53.468;9.826;2022-07-10T05:07:51;15.60;98.80
44166;DHT22;30476;53.468;9.826;2022-07-10T05:10:16;15.60;98.70
44166;DHT22;30476;53.468;9.826;2022-07-10T05:12:42;15.60;98.70
44166;DHT22;30476;53.468;9.826;2022-07-10T05:15:08;15.70;98.60
44166;DHT22;30476;53.468;9.826;2022-07-10T05:17:34;15.70;98.60
44166;DHT22;30476;53.468;9.826;2022-07-10T05:20:00;15.70;98.50
44166;DHT22;30476;53.468;9.826;2022-07-10T05:22:26;15.70;98.30
44166;DHT22;30476;53.468;9.826;2022-07-10T05:24:52;15.80;98.20
44166;DHT22;30476;53.468;9.826;2022-07-10T05:27:17;15.80;98.10
44166;DHT22;30476;53.468;9.826;2022-07-10T05:29:46;15.80;98.10
44166;DHT22;30476;53.468;9.826;2022-07-10T05:32:12;15.90;98.00
44166;DHT22;30476;53.468;9.826;2022-07-10T05:34:37;15.90;97.90
44166;DHT22;30476;53.468;9.826;2022-07-10T05:37:04;16.00;98.00
44166;DHT22;30476;53.468;9.826;2022-07-10T05:39:30;16.10;98.00
44166;DHT22;30476;53.468;9.826;2022-07-10T05:41:56;16.10;97.90
44166;DHT22;30476;53.468;9.826;2022-07-10T05:44:23;16.20;97.90
44166;DHT22;30476;53.468;9.826;2022-07-10T05:46:49;16.20;97.60
44166;DHT22;30476;53.468;9.826;2022-07-10T05:49:15;16.30;97.40
44166;DHT22;30476;53.468;9.826;2022-07-10T05:51:41;16.30;97.20
44166;DHT22;30476;53.468;9.826;2022-07-10T05:54:08;16.40;97.00
44166;DHT22;30476;53.468;9.826;2022-07-10T05:56:34;16.50;96.30
44166;DHT22;30476;53.468;9.826;2022-07-10T05:59:00;16.60;96.10
44166;DHT22;30476;53.468;9.826;2022-07-10T06:01:25;16.60;96.00
44166;DHT22;30476;53.468;9.826;2022-07-10T06:03:52;16.70;96.00
44166;DHT22;30476;53.468;9.826;2022-07-10T06:06:18;16.80;95.70
44166;DHT22;30476;53.468;9.826;2022-07-10T06:08:44;16.90;94.90
44166;DHT22;30476;53.468;9.826;2022-07-10T06:11:10;16.90;94.10
44166;DHT22;30476;53.468;9.826;2022-07-10T06:13:37;16.90;93.50
44166;DHT22;30476;53.468;9.826;2022-07-10T06:16:03;17.00;93.00
44166;DHT22;30476;53.468;9.826;2022-07-10T06:18:30;17.00;92.90
44166;DHT22;30476;53.468;9.826;2022-07-10T06:20:56;17.00;92.80
44166;DHT22;30476;53.468;9.826;2022-07-10T06:23:22;17.00;92.80
44166;DHT22;30476;53.468;9.826;2022-07-10T06:25:48;17.00;93.00
44166;DHT22;30476;53.468;9.826;2022-07-10T06:28:18;17.00;93.30
44166;DHT22;30476;53.468;9.826;2022-07-10T06:30:44;17.10;93.40
44166;DHT22;30476;53.468;9.826;2022-07-10T06:33:12;17.20;93.20
44166;DHT22;30476;53.468;9.826;2022-07-10T06:35:37;17.20;92.70
44166;DHT22;30476;53.468;9.826;2022-07-10T06:38:03;17.30;92.40
44166;DHT22;30476;53.468;9.826;2022-07-10T06:40:30;17.40;92.30
44166;DHT22;30476;53.468;9.826;2022-07-10T06:43:00;17.40;91.80
44166;DHT22;30476;53.468;9.826;2022-07-10T06:45:25;17.50;91.50
44166;DHT22;30476;53.468;9.826;2022-07-10T06:47:51;17.60;91.50
44166;DHT22;30476;53.468;9.826;2022-07-10T06:50:25;17.60;91.00
44166;DHT22;30476;53.468;9.826;2022-07-10T06:52:52;17.60;91.40
44166;DHT22;30476;53.468;9.826;2022-07-10T06:55:18;17.70;91.70
44166;DHT22;30476;53.468;9.826;2022-07-10T06:57:45;17.80;91.80
44166;DHT22;30476;53.468;9.826;2022-07-10T07:00:11;17.90;91.40
44166;DHT22;30476;53.468;9.826;2022-07-10T07:02:38;18.00;90.70
44166;DHT22;30476;53.468;9.826;2022-07-10T07:05:04;18.00;90.40
44166;DHT22;30476;53.468;9.826;2022-07-10T07:07:30;18.10;89.70
44166;DHT22;30476;53.468;9.826;2022-07-10T07:09:56;18.10;88.50
44166;DHT22;30476;53.468;9.826;2022-07-10T07:12:22;18.10;85.90
44166;DHT22;30476;53.468;9.826;2022-07-10T07:14:48;18.10;85.30
44166;DHT22;30476;53.468;9.826;2022-07-10T07:17:14;18.10;87.10
44166;DHT22;30476;53.468;9.826;2022-07-10T07:19:47;18.10;87.30
44166;DHT22;30476;53.468;9.826;2022-07-10T07:22:32;18.10;86.90
44166;DHT22;30476;53.468;9.826;2022-07-10T07:25:16;18.10;87.50
44166;DHT22;30476;53.468;9.826;2022-07-10T07:27:42;18.20;87.10
44166;DHT22;30476;53.468;9.826;2022-07-10T07:30:10;18.20;84.00
44166;DHT22;30476;53.468;9.826;2022-07-10T07:32:37;18.30;83.50
44166;DHT22;30476;53.468;9.826;2022-07-10T07:35:04;18.40;84.10
44166;DHT22;30476;53.468;9.826;2022-07-10T07:37:40;18.40;83.60
44166;DHT22;30476;53.468;9.826;2022-07-10T07:40:11;18.40;84.20
44166;DHT22;30476;53.468;9.826;2022-07-10T07:42:37;18.40;84.20
44166;DHT22;30476;53.468;9.826;2022-07-10T07:45:04;18.50;84.60
44166;DHT22;30476;53.468;9.826;2022-07-10T07:47:31;18.50;84.10
44166;DHT22;30476;53.468;9.826;2022-07-10T07:49:57;18.50;84.50
44166;DHT22;30476;53.468;9.826;2022-07-10T07:52:22;18.60;84.70
44166;DHT22;30476;53.468;9.826;2022-07-10T07:54:49;18.70;83.30
44166;DHT22;30476;53.468;9.826;2022-07-10T07:57:16;18.70;82.60
44166;DHT22;30476;53.468;9.826;2022-07-10T07:59:42;18.80;83.30
44166;DHT22;30476;53.468;9.826;2022-07-10T08:02:08;18.80;81.60
44166;DHT22;30476;53.468;9.826;2022-07-10T08:04:33;18.90;81.40
44166;DHT22;30476;53.468;9.826;2022-07-10T08:06:59;19.00;81.50
44166;DHT22;30476;53.468;9.826;2022-07-10T08:09:26;19.00;82.60
44166;DHT22;30476;53.468;9.826;2022-07-10T08:11:52;19.10;82.60
44166;DHT22;30476;53.468;9.826;2022-07-10T08:14:18;19.30;82.10
44166;DHT22;30476;53.468;9.826;2022-07-10T08:16:44;19.40;80.00
44166;DHT22;30476;53.468;9.826;2022-07-10T08:19:10;19.40;79.20
44166;DHT22;30476;53.468;9.826;2022-07-10T08:21:35;19.40;80.20
44166;DHT22;30476;53.468;9.826;2022-07-10T08:24:01;19.50;80.90
44166;DHT22;30476;53.468;9.826;2022-07-10T08:26:27;19.60;78.10
44166;DHT22;30476;53.468;9.826;2022-07-10T08:28:53;19.70;78.60
44166;DHT22;30476;53.468;9.826;2022-07-10T08:31:19;19.70;79.20
44166;DHT22;30476;53.468;9.826;2022-07-10T08:33:44;19.80;79.60
44166;DHT22;30476;53.468;9.826;2022-07-10T08:36:11;19.80;81.20
44166;DHT22;30476;53.468;9.826;2022-07-10T08:38:37;20.00;81.30
44166;DHT22;30476;53.468;9.826;2022-07-10T08:41:05;20.00;79.20
44166;DHT22;30476;53.468;9.826;2022-07-10T08:43:31;20.10;77.20
44166;DHT22;30476;53.468;9.826;2022-07-10T08:45:58;20.10;78.70
44166;DHT22;30476;53.468;9.826;2022-07-10T08:48:24;20.10;78.50
44166;DHT22;30476;53.468;9.826;2022-07-10T08:50:53;20.10;78.00
44166;DHT22;30476;53.468;9.826;2022-07-10T08:53:29;20.10;77.50
44166;DHT22;30476;53.468;9.826;2022-07-10T08:55:58;20.20;76.00
44166;DHT22;30476;53.468;9.826;2022-07-10T08:58:26;20.30;75.30
44166;DHT22;30476;53.468;9.826;2022-07-10T09:00:52;20.30;74.30
44166;DHT22;30476;53.468;9.826;2022-07-10T09:03:19;20.40;74.10
44166;DHT22;30476;53.468;9.826;2022-07-10T09:05:45;20.40;74.20
44166;DHT22;30476;53.468;9.826;2022-07-10T09:08:25;20.40;73.40
44166;DHT22;30476;53.468;9.826;2022-07-10T09:11:18;20.50;75.40
44166;DHT22;30476;53.468;9.826;2022-07-10T09:13:53;20.50;70.70
44166;DHT22;30476;53.468;9.826;2022-07-10T09:16:27;20.60;70.50
44166;DHT22;30476;53.468;9.826;2022-07-10T09:18:53;20.60;70.70
44166;DHT22;30476;53.468;9.826;2022-07-10T09:21:20;20.60;69.90
44166;DHT22;30476;53.468;9.826;2022-07-10T09:23:46;20.70;70.40
44166;DHT22;30476;53.468;9.826;2022-07-10T09:26:12;20.70;69.90
44166;DHT22;30476;53.468;9.826;2022-07-10T09:28:38;20.90;71.20
44166;DHT22;30476;53.468;9.826;2022-07-10T09:31:04;20.90;69.60
44166;DHT22;30476;53.468;9.826;2022-07-10T09:33:31;21.00;70.20
44166;DHT22;30476;53.468;9.826;2022-07-10T09:36:11;21.20;71.40
44166;DHT22;30476;53.468;9.826;2022-07-10T09:43:52;21.50;68.80
44166;DHT22;30476;53.468;9.826;2022-07-10T09:46:20;21.40;67.80
44166;DHT22;30476;53.468;9.826;2022-07-10T09:48:47;21.50;68.00
44166;DHT22;30476;53.468;9.826;2022-07-10T09:51:13;21.50;68.10
44166;DHT22;30476;53.468;9.826;2022-07-10T09:53:43;21.60;67.50
44166;DHT22;30476;53.468;9.826;2022-07-10T09:56:13;21.70;66.50
44166;DHT22;30476;53.468;9.826;2022-07-10T09:58:39;21.80;66.50
44166;DHT22;30476;53.468;9.826;2022-07-10T10:01:07;21.90;66.30
44166;DHT22;30476;53.468;9.826;2022-07-10T10:03:37;21.90;66.60
44166;DHT22;30476;53.468;9.826;2022-07-10T10:11:35;21.80;67.10
44166;DHT22;30476;53.468;9.826;2022-07-10T10:14:03;21.80;68.50
44166;DHT22;30476;53.468;9.826;2022-07-10T10:16:33;21.80;67.50
44166;DHT22;30476;53.468;9.826;2022-07-10T10:18:59;21.80;67.40
44166;DHT22;30476;53.468;9.826;2022-07-10T10:21:44;21.60;67.20
44166;DHT22;30476;53.468;9.826;2022-07-10T10:24:11;21.60;69.70
44166;DHT22;30476;53.468;9.826;2022-07-10T10:26:37;21.50;70.00
44166;DHT22;30476;53.468;9.826;2022-07-10T10:29:03;21.60;70.70
44166;DHT22;30476;53.468;9.826;2022-07-10T10:31:30;21.50;69.10
44166;DHT22;30476;53.468;9.826;2022-07-10T10:33:57;21.30;69.10
44166;DHT22;30476;53.468;9.826;2022-07-10T10:39:09;21.20;69.70
44166;DHT22;30476;53.468;9.826;2022-07-10T10:41:40;21.00;70.30
44166;DHT22;30476;53.468;9.826;2022-07-10T10:46:33;20.90;71.30
44166;DHT22;30476;53.468;9.826;2022-07-10T10:49:06;20.90;72.40
44166;DHT22;30476;53.468;9.826;2022-07-10T10:52:09;21.00;73.40
44166;DHT22;30476;53.468;9.826;2022-07-10T10:59:59;21.20;71.00
44166;DHT22;30476;53.468;9.826;2022-07-10T11:02:29;21.20;72.20
44166;DHT22;30476;53.468;9.826;2022-07-10T11:08:00;21.30;72.90
44166;DHT22;30476;53.468;9.826;2022-07-10T11:13:12;21.40;72.30
44166;DHT22;30476;53.468;9.826;2022-07-10T11:15:41;21.40;71.30
44166;DHT22;30476;53.468;9.826;2022-07-10T11:18:11;21.30;69.80
44166;DHT22;30476;53.468;9.826;2022-07-10T11:20:38;21.10;70.80
44166;DHT22;30476;53.468;9.826;2022-07-10T11:23:17;21.00;72.10
44166;DHT22;30476;53.468;9.826;2022-07-10T11:25:54;21.00;73.20
44166;DHT22;30476;53.468;9.826;2022-07-10T11:31:04;21.20;69.90
44166;DHT22;30476;53.468;9.826;2022-07-10T11:33:39;21.30;68.80
44166;DHT22;30476;53.468;9.826;2022-07-10T11:36:10;21.30;68.70
44166;DHT22;30476;53.468;9.826;2022-07-10T11:38:36;21.30;68.00
44166;DHT22;30476;53.468;9.826;2022-07-10T11:41:02;21.30;67.90
44166;DHT22;30476;53.468;9.826;2022-07-10T11:43:28;21.20;68.00
44166;DHT22;30476;53.468;9.826;2022-07-10T11:45:54;21.20;69.30
44166;DHT22;30476;53.468;9.826;2022-07-10T11:48:24;21.10;67.30
44166;DHT22;30476;53.468;9.826;2022-07-10T11:50:50;21.00;67.10
44166;DHT22;30476;53.468;9.826;2022-07-10T11:53:26;20.90;70.00
44166;DHT22;30476;53.468;9.826;2022-07-10T11:55:53;21.00;70.60
44166;DHT22;30476;53.468;9.826;2022-07-10T11:58:19;21.20;69.90
44166;DHT22;30476;53.468;9.826;2022-07-10T12:00:59;21.40;70.90
44166;DHT22;30476;53.468;9.826;2022-07-10T12:03:27;21.50;71.70
44166;DHT22;30476;53.468;9.826;2022-07-10T12:05:53;21.60;70.20
44166;DHT22;30476;53.468;9.826;2022-07-10T12:08:19;21.80;69.80
44166;DHT22;30476;53.468;9.826;2022-07-10T12:10:45;21.80;69.00
44166;DHT22;30476;53.468;9.826;2022-07-10T12:13:14;21.90;68.70
44166;DHT22;30476;53.468;9.826;2022-07-10T12:15:43;22.10;70.40
44166;DHT22;30476;53.468;9.826;2022-07-10T12:18:20;22.20;67.90
44166;DHT22;30476;53.468;9.826;2022-07-10T12:20:47;22.40;67.60
44166;DHT22;30476;53.468;9.826;2022-07-10T12:23:17;22.50;65.60
44166;DHT22;30476;53.468;9.826;2022-07-10T12:25:43;22.50;65.80
44166;DHT22;30476;53.468;9.826;2022-07-10T12:28:09;22.50;66.70
44166;DHT22;30476;53.468;9.826;2022-07-10T12:30:40;22.40;67.20
44166;DHT22;30476;53.468;9.826;2022-07-10T12:33:15;22.40;68.40
44166;DHT22;30476;53.468;9.826;2022-07-10T12:35:56;22.40;66.80
44166;DHT22;30476;53.468;9.826;2022-07-10T12:38:28;22.60;65.90
44166;DHT22;30476;53.468;9.826;2022-07-10T12:41:09;22.60;65.40
44166;DHT22;30476;53.468;9.826;2022-07-10T12:43:36;22.80;64.10
44166;DHT22;30476;53.468;9.826;2022-07-10T12:48:34;23.10;65.20
44166;DHT22;30476;53.468;9.826;2022-07-10T12:51:22;23.10;62.60
44166;DHT22;30476;53.468;9.826;2022-07-10T12:53:48;23.00;61.00
44166;DHT22;30476;53.468;9.826;2022-07-10T12:56:32;22.70;60.90
44166;DHT22;30476;53.468;9.826;2022-07-10T12:58:59;22.60;62.20
44166;DHT22;30476;53.468;9.826;2022-07-10T13:01:29;22.50;62.00
44166;DHT22;30476;53.468;9.826;2022-07-10T13:04:04;22.30;61.50
44166;DHT22;30476;53.468;9.826;2022-07-10T13:06:32;22.20;63.80
44166;DHT22;30476;53.468;9.826;2022-07-10T13:08:59;22.10;63.90
44166;DHT22;30476;53.468;9.826;2022-07-10T13:11:25;22.10;65.40
44166;DHT22;30476;53.468;9.826;2022-07-10T13:13:53;22.10;66.20
44166;DHT22;30476;53.468;9.826;2022-07-10T13:16:18;22.10;64.60
44166;DHT22;30476;53.468;9.826;2022-07-10T13:18:44;22.10;64.10
44166;DHT22;30476;53.468;9.826;2022-07-10T13:21:10;22.00;64.40
44166;DHT22;30476;53.468;9.826;2022-07-10T13:23:37;21.90;65.30
44166;DHT22;30476;53.468;9.826;2022-07-10T13:26:04;21.70;63.70
44166;DHT22;30476;53.468;9.826;2022-07-10T13:28:33;21.70;64.20
44166;DHT22;30476;53.468;9.826;2022-07-10T13:30:59;21.60;62.00
44166;DHT22;30476;53.468;9.826;2022-07-10T13:33:25;21.50;63.00
44166;DHT22;30476;53.468;9.826;2022-07-10T13:35:51;21.50;65.60
44166;DHT22;30476;53.468;9.826;2022-07-10T13:38:17;21.50;65.70
44166;DHT22;30476;53.468;9.826;2022-07-10T13:40:44;21.50;63.60
44166;DHT22;30476;53.468;9.826;2022-07-10T13:43:11;21.50;63.80
44166;DHT22;30476;53.468;9.826;2022-07-10T13:45:38;21.60;64.20
44166;DHT22;30476;53.468;9.826;2022-07-10T13:48:09;21.70;64.40
44166;DHT22;30476;53.468;9.826;2022-07-10T13:50:38;21.80;64.40
44166;DHT22;30476;53.468;9.826;2022-07-10T13:53:04;21.80;63.70
44166;DHT22;30476;53.468;9.826;2022-07-10T13:55:30;21.80;64.10
44166;DHT22;30476;53.468;9.826;2022-07-10T13:57:56;21.90;65.60
44166;DHT22;30476;53.468;9.826;2022-07-10T14:00:21;22.00;65.30
44166;DHT22;30476;53.468;9.826;2022-07-10T14:02:47;22.00;64.00
44166;DHT22;30476;53.468;9.826;2022-07-10T14:05:13;22.00;64.80
44166;DHT22;30476;53.468;9.826;2022-07-10T14:07:39;22.00;64.80
44166;DHT22;30476;53.468;9.826;2022-07-10T14:10:05;21.90;64.90
44166;DHT22;30476;53.468;9.826;2022-07-10T14:12:31;21.80;65.60
44166;DHT22;30476;53.468;9.826;2022-07-10T14:14:57;21.80;65.40
44166;DHT22;30476;53.468;9.826;2022-07-10T14:17:23;21.80;65.20
44166;DHT22;30476;53.468;9.826;2022-07-10T14:19:50;21.80;65.60
44166;DHT22;30476;53.468;9.826;2022-07-10T14:22:16;21.80;65.30
44166;DHT22;30476;53.468;9.826;2022-07-10T14:24:42;21.80;66.10
44166;DHT22;30476;53.468;9.826;2022-07-10T14:27:08;21.80;66.90
44166;DHT22;30476;53.468;9.826;2022-07-10T14:29:34;21.80;65.40
44166;DHT22;30476;53.468;9.826;2022-07-10T14:31:59;21.90;64.90
44166;DHT22;30476;53.468;9.826;2022-07-10T14:34:25;21.90;64.60
44166;DHT22;30476;53.468;9.826;2022-07-10T14:36:53;21.90;65.10
44166;DHT22;30476;53.468;9.826;2022-07-10T14:39:19;21.90;64.50
44166;DHT22;30476;53.468;9.826;2022-07-10T14:41:45;21.80;65.10
44166;DHT22;30476;53.468;9.826;2022-07-10T14:44:11;21.70;64.60
44166;DHT22;30476;53.468;9.826;2022-07-10T14:46:37;21.60;65.10
44166;DHT22;30476;53.468;9.826;2022-07-10T14:49:02;21.50;66.00
44166;DHT22;30476;53.468;9.826;2022-07-10T14:51:28;21.50;66.60
44166;DHT22;30476;53.468;9.826;2022-07-10T14:53:55;21.40;67.10
44166;DHT22;30476;53.468;9.826;2022-07-10T14:56:23;21.40;68.00
44166;DHT22;30476;53.468;9.826;2022-07-10T14:58:49;21.20;67.60
44166;DHT22;30476;53.468;9.826;2022-07-10T15:01:15;21.20;67.40
44166;DHT22;30476;53.468;9.826;2022-07-10T15:03:41;21.10;67.30
44166;DHT22;30476;53.468;9.826;2022-07-10T15:06:07;21.10;68.10
44166;DHT22;30476;53.468;9.826;2022-07-10T15:08:33;20.90;68.50
44166;DHT22;30476;53.468;9.826;2022-07-10T15:10:59;20.90;68.50
44166;DHT22;30476;53.468;9.826;2022-07-10T15:13:26;20.80;69.00
44166;DHT22;30476;53.468;9.826;2022-07-10T15:15:51;20.80;70.00
44166;DHT22;30476;53.468;9.826;2022-07-10T15:18:18;20.80;70.60
44166;DHT22;30476;53.468;9.826;2022-07-10T15:20:45;20.70;68.20
44166;DHT22;30476;53.468;9.826;2022-07-10T15:23:11;20.60;68.00
44166;DHT22;30476;53.468;9.826;2022-07-10T15:25:36;20.60;68.50
44166;DHT22;30476;53.468;9.826;2022-07-10T15:28:11;20.60;69.80
44166;DHT22;30476;53.468;9.826;2022-07-10T15:30:38;20.60;69.80
44166;DHT22;30476;53.468;9.826;2022-07-10T15:33:04;20.60;70.30
44166;DHT22;30476;53.468;9.826;2022-07-10T15:35:33;20.70;70.30
44166;DHT22;30476;53.468;9.826;2022-07-10T15:38:00;20.70;70.00
44166;DHT22;30476;53.468;9.826;2022-07-10T15:40:30;20.60;69.00
44166;DHT22;30476;53.468;9.826;2022-07-10T15:42:56;20.60;68.50
44166;DHT22;30476;53.468;9.826;2022-07-10T15:45:23;20.60;68.40
44166;DHT22;30476;53.468;9.826;2022-07-10T15:47:49;20.50;68.80
44166;DHT22;30476;53.468;9.826;2022-07-10T15:50:15;20.40;69.50
44166;DHT22;30476;53.468;9.826;2022-07-10T15:52:41;20.30;69.70
44166;DHT22;30476;53.468;9.826;2022-07-10T15:55:08;20.20;69.80
44166;DHT22;30476;53.468;9.826;2022-07-10T15:57:34;20.10;70.80
44166;DHT22;30476;53.468;9.826;2022-07-10T15:59:59;20.10;70.70
44166;DHT22;30476;53.468;9.826;2022-07-10T16:02:25;20.00;70.80
44166;DHT22;30476;53.468;9.826;2022-07-10T16:04:51;19.90;70.90